Carlstadt, NJ (07072)

9:42 AM EDT on May 24, 2015 (GMT -0400)
Carlstadt OEM | | Change Station
CLOSE
Current Station
Personal Weather Station
Location: Carlstadt, NJ
Elevation: 125 ft
Nearby Weather Stations
Active Advisory: Special Statement Active Notice: Public Information Statement

Elev 125 ft 40.84 °N, 74.10 °W | Updated 33 seconds ago

Clear
Clear
67.4 °F
Feels Like 67.4 °F
N
16.2
Wind Variable Wind from SE
Gusts 16.2 mph

Today
High -- | Low -- °F
--% Chance of Precip.
Yesterday
High -- | Low -- °F
Precip. -- in
5:31 AM 8:15 PM
Waxing Crescent, 39% visible
Pressure 30.36 in
Visibility 10.0 miles
Clouds Clear
Dew Point 48 °F
Humidity 50%
Rainfall 0.00 in
Snow Depth Not available.
UV 4 out of 12
Pollen 9.00 out of 12
Air Quality Not available.
Flu Activity Sporadic
METAR KTEB 241251Z 20006KT 10SM CLR 18/04 A3036 RMK AO2 SLP280 T01780044 $

More Conditions Fewer Conditions

Pressure 30.36 in
Visibility 10.0 miles
Clouds Clear
Dew Point 48 °F
Humidity 50%
Rainfall 0.00 in
Snow Depth Not available.
UV 4 out of 12
Pollen 9.00 out of 12
Air Quality Not available.
Flu Activity Sporadic
METAR KTEB 241251Z 20006KT 10SM CLR 18/04 A3036 RMK AO2 SLP280 T01780044 $

More Conditions Fewer Conditions

10-Day Weather Forecast

Almanac

Astronomy

May. 24, 2015 Rise Set
Actual Time
Civil Twilight
Nautical Twilight
Astronomical Twilight
Moon
Length of Visible Light
Length of Day
Tomorrow will be .
, % of the Moon is Illuminated

Today's Extremes

State Highs State Lows

Community

WunderPhotos

Upload Photos

1,823,738 photos uploaded!

WunderBlogs® & News

Nearby

Air Quality

  Air Quality AQ Index Pollutant
Not available.

Snow Depth

Station Depth Elevation

Earthquake Activity

City Distance Mag. Time & Date
Minimum magnitude displayed is 2.5.

Coastal Water Temperatures

Place Temperature

Stations

Nearby Weather Stations

Station Location Temp. Windchill Dew Point Humidity Wind Precip. Elev Updated Type
                   
Special Statement
Statement as of 4:44 AM EDT on May 24, 2015

... Enhanced fire weather conditions today into early this
evening...

Southwest flow today into early this evening will be generally 10
to 20 mph and this will help lower dewpoints with vertical mixing.
As a result... minimum relative humidities will be near 25 to 30
percent for much of the region... so these conditions will enhance
the spread and growth of any fires that develop.



444 am EDT sun may 24 2015

... Enhanced fire weather conditions today into early this
evening...

Southwest flow today into early this evening will be generally 10
to 20 mph and this will help lower dewpoints with vertical mixing.
As a result... minimum relative humidities will be near 25 to 30
percent for much of the region... so these conditions will enhance
the spread and growth of any fires that develop.